Time;durP1;ratioP1;P1;durP2;ratioP2;P2;SDS_P1;SDS_P2;PMS_P1;PMS_P2;Temp;Humidity;BMP_temperature;BMP_pressure;BME280_temperature;BME280_humidity;BME280_pressure;Samples;Min_cycle;Max_cycle;Signal;HPM_P1;HPM_P2
2021/10/17 00:02:13;;;;;;;13.63;6.47;;;7.40;99.90;;;;;;4999911;28;20071;-82
2021/10/17 00:04:39;;;;;;;12.98;5.93;;;7.40;99.90;;;;;;5002893;28;20021;-80
2021/10/17 00:07:07;;;;;;;11.80;6.43;;;7.40;99.90;;;;;;5012198;28;20478;-81
2021/10/17 00:09:32;;;;;;;12.15;6.25;;;7.40;99.90;;;;;;5016658;28;20025;-80
2021/10/17 00:11:58;;;;;;;12.35;6.65;;;7.40;99.90;;;;;;5000281;28;20020;-81
2021/10/17 00:14:23;;;;;;;11.93;5.60;;;7.40;99.90;;;;;;5017468;28;20034;-81
2021/10/17 00:16:49;;;;;;;11.97;6.10;;;7.40;99.90;;;;;;4979471;28;20084;-81
2021/10/17 00:19:15;;;;;;;11.33;6.10;;;7.50;99.90;;;;;;4995251;28;20031;-81
2021/10/17 00:21:40;;;;;;;12.53;7.20;;;7.40;99.90;;;;;;4992629;28;20102;-81
2021/10/17 00:24:06;;;;;;;13.67;6.63;;;7.50;99.90;;;;;;4995611;28;20046;-80
2021/10/17 00:26:32;;;;;;;13.63;6.50;;;7.40;99.90;;;;;;4997085;28;20034;-80
2021/10/17 00:28:58;;;;;;;13.67;6.27;;;7.40;99.90;;;;;;4997181;28;20018;-80
2021/10/17 00:31:24;;;;;;;13.27;6.17;;;7.40;99.90;;;;;;4986144;28;20065;-80
2021/10/17 00:33:49;;;;;;;11.90;6.30;;;7.40;99.90;;;;;;5009109;28;20036;-81
2021/10/17 00:36:16;;;;;;;14.10;6.43;;;7.40;99.90;;;;;;5017006;28;20032;-80
2021/10/17 00:38:43;;;;;;;12.77;6.23;;;7.40;99.90;;;;;;5014253;28;20128;-80
2021/10/17 00:41:09;;;;;;;11.67;6.47;;;7.40;99.90;;;;;;5010660;28;20037;-80
2021/10/17 00:43:34;;;;;;;13.00;6.73;;;7.40;99.90;;;;;;4989495;28;20517;-79
2021/10/17 00:46:00;;;;;;;11.45;6.82;;;7.40;99.90;;;;;;5017852;28;20026;-80
2021/10/17 00:48:25;;;;;;;11.23;6.00;;;7.40;99.90;;;;;;5015932;28;20100;-82
2021/10/17 00:50:51;;;;;;;12.27;6.97;;;7.40;99.90;;;;;;5017422;28;20036;-82
2021/10/17 00:53:20;;;;;;;14.20;6.90;;;7.40;99.90;;;;;;5008038;28;20030;-81
2021/10/17 00:55:47;;;;;;;11.70;5.97;;;7.40;99.90;;;;;;5019223;28;20025;-82
2021/10/17 00:58:16;;;;;;;14.33;6.13;;;7.40;99.90;;;;;;5020241;28;20025;-81
2021/10/17 01:00:42;;;;;;;14.83;6.90;;;7.40;99.90;;;;;;4997266;28;20046;-81
2021/10/17 01:03:07;;;;;;;12.37;6.03;;;7.40;99.90;;;;;;4998140;28;20072;-82
2021/10/17 01:05:33;;;;;;;16.67;6.47;;;7.30;99.90;;;;;;4991453;28;20029;-82
2021/10/17 01:07:59;;;;;;;13.45;6.55;;;7.30;99.90;;;;;;5017679;28;20041;-82
2021/10/17 01:10:27;;;;;;;14.07;5.67;;;7.20;99.90;;;;;;5016459;28;20037;-82
2021/10/17 01:12:52;;;;;;;17.13;6.13;;;7.10;99.90;;;;;;5017431;28;20038;-82
2021/10/17 01:15:18;;;;;;;10.53;5.93;;;7.10;99.90;;;;;;5006780;28;20035;-82
2021/10/17 01:17:43;;;;;;;14.47;6.57;;;7.10;99.90;;;;;;4995693;28;20372;-82
2021/10/17 01:20:09;;;;;;;12.60;5.03;;;7.10;99.90;;;;;;4995797;28;20129;-81
2021/10/17 01:22:37;;;;;;;13.93;6.43;;;7.10;99.90;;;;;;5000466;28;20025;-82
2021/10/17 01:25:03;;;;;;;11.20;5.73;;;7.20;99.90;;;;;;5004767;28;20034;-82
2021/10/17 01:27:28;;;;;;;16.50;5.90;;;7.10;99.90;;;;;;4995569;28;20041;-82
2021/10/17 01:29:54;;;;;;;22.20;5.60;;;7.10;99.90;;;;;;4994467;28;20391;-82
2021/10/17 01:32:21;;;;;;;11.40;5.13;;;7.00;99.90;;;;;;4995558;28;20072;-82
2021/10/17 01:34:46;;;;;;;10.80;6.10;;;7.00;99.90;;;;;;5016196;28;20036;-82
2021/10/17 01:37:12;;;;;;;11.87;6.43;;;7.00;99.90;;;;;;5015061;28;20030;-82
2021/10/17 01:39:38;;;;;;;13.43;6.23;;;6.90;99.90;;;;;;4986155;28;20406;-82
2021/10/17 01:42:03;;;;;;;17.43;6.47;;;6.90;99.90;;;;;;4995739;28;20455;-81
2021/10/17 01:44:31;;;;;;;16.93;5.80;;;6.90;99.90;;;;;;5005162;28;20055;-82
2021/10/17 01:46:58;;;;;;;11.30;5.27;;;6.80;99.90;;;;;;5006897;28;20101;-82
2021/10/17 01:49:24;;;;;;;11.23;5.77;;;6.80;99.90;;;;;;5014770;28;20025;-81
2021/10/17 01:51:50;;;;;;;12.00;6.30;;;6.70;99.90;;;;;;5008205;28;20029;-81
2021/10/17 01:54:16;;;;;;;13.10;6.27;;;6.80;99.90;;;;;;4998451;28;20033;-81
2021/10/17 01:56:42;;;;;;;11.97;6.13;;;6.80;99.90;;;;;;4999567;28;20037;-82
2021/10/17 01:59:07;;;;;;;9.27;5.30;;;6.80;99.90;;;;;;5021694;28;20026;-82
2021/10/17 02:01:33;;;;;;;8.77;5.60;;;6.80;99.90;;;;;;4983959;28;20069;-81
2021/10/17 02:04:00;;;;;;;11.47;5.90;;;6.70;99.90;;;;;;5001913;28;20128;-82
2021/10/17 02:06:26;;;;;;;21.03;5.50;;;6.70;99.90;;;;;;4994885;28;20085;-82
2021/10/17 02:08:51;;;;;;;10.13;5.60;;;6.70;99.90;;;;;;4995294;28;20454;-82
2021/10/17 02:11:17;;;;;;;17.60;5.07;;;6.70;99.90;;;;;;4995403;28;20471;-81
2021/10/17 02:13:43;;;;;;;22.83;6.10;;;6.70;99.90;;;;;;4995925;28;20502;-81
2021/10/17 02:16:08;;;;;;;14.97;5.17;;;6.70;99.90;;;;;;4979183;28;20026;-80
2021/10/17 02:18:34;;;;;;;11.63;5.70;;;6.60;99.90;;;;;;5019233;28;20038;-82
2021/10/17 02:21:00;;;;;;;9.70;5.73;;;6.60;99.90;;;;;;5020448;28;20049;-82
2021/10/17 02:23:26;;;;;;;10.77;5.43;;;6.70;99.90;;;;;;5020505;28;20049;-82
2021/10/17 02:25:52;;;;;;;11.70;5.90;;;6.70;99.90;;;;;;5004654;28;20066;-82
2021/10/17 02:28:17;;;;;;;10.73;5.77;;;6.70;99.90;;;;;;4997439;28;20038;-82
2021/10/17 02:30:43;;;;;;;11.37;5.83;;;6.80;99.90;;;;;;4997510;28;20058;-82
2021/10/17 02:33:09;;;;;;;11.13;6.17;;;6.80;99.90;;;;;;5000492;28;20121;-81
2021/10/17 02:35:34;;;;;;;10.00;5.90;;;6.90;99.90;;;;;;4998439;28;20585;-81
2021/10/17 02:38:00;;;;;;;10.23;5.40;;;6.90;99.90;;;;;;4998281;28;20022;-82
2021/10/17 02:40:25;;;;;;;10.87;5.00;;;6.90;99.90;;;;;;4991385;28;20026;-82
2021/10/17 02:42:51;;;;;;;9.63;5.07;;;6.80;99.90;;;;;;4997800;28;20026;-81
2021/10/17 02:45:17;;;;;;;10.77;5.43;;;6.90;99.90;;;;;;4997946;28;20040;-81
2021/10/17 02:47:42;;;;;;;10.30;5.47;;;6.90;99.90;;;;;;4997942;28;20034;-82
2021/10/17 02:50:08;;;;;;;8.97;5.03;;;6.90;99.90;;;;;;5000466;28;20033;-82
2021/10/17 02:52:34;;;;;;;9.27;5.20;;;6.90;99.90;;;;;;5010994;28;20033;-81
2021/10/17 02:54:59;;;;;;;9.40;5.50;;;6.90;99.90;;;;;;5037340;28;20536;-81
2021/10/17 02:57:25;;;;;;;9.83;5.57;;;7.00;99.90;;;;;;5003118;28;20456;-82
2021/10/17 02:59:51;;;;;;;10.77;6.07;;;7.00;99.90;;;;;;4996746;28;20030;-81
2021/10/17 03:02:16;;;;;;;11.20;6.27;;;7.10;99.90;;;;;;4998946;23;20053;-87
2021/10/17 03:04:42;;;;;;;9.63;5.37;;;7.10;99.90;;;;;;4966517;28;20022;-88
2021/10/17 03:07:07;;;;;;;8.67;5.30;;;6.90;99.90;;;;;;4969994;28;20022;-87
2021/10/17 03:09:33;;;;;;;8.67;5.50;;;7.10;99.90;;;;;;4976639;28;20034;-87
2021/10/17 03:11:59;;;;;;;10.17;5.40;;;7.10;99.90;;;;;;4973219;28;20031;-87
2021/10/17 03:14:24;;;;;;;8.57;5.20;;;7.30;99.90;;;;;;4974965;28;20110;-87
2021/10/17 03:16:50;;;;;;;8.60;5.10;;;7.10;99.90;;;;;;4957056;28;20110;-87
2021/10/17 03:19:16;;;;;;;9.20;5.20;;;7.30;99.90;;;;;;4957013;28;20027;-87
2021/10/17 03:21:42;;;;;;;8.40;5.40;;;7.10;99.90;;;;;;4955328;28;20034;-88
2021/10/17 03:24:08;;;;;;;10.13;5.67;;;7.10;99.90;;;;;;4956596;28;20034;-87
2021/10/17 03:26:33;;;;;;;9.37;5.27;;;7.10;99.90;;;;;;4956181;28;20126;-87
2021/10/17 03:28:59;;;;;;;12.23;5.67;;;8.50;99.90;;;;;;4971927;28;20034;-87
2021/10/17 03:31:24;;;;;;;10.57;5.07;;;8.00;99.90;;;;;;4954849;28;20081;-87
2021/10/17 03:33:50;;;;;;;9.20;4.93;;;8.30;99.90;;;;;;4964207;28;20023;-88
2021/10/17 03:36:16;;;;;;;10.47;5.80;;;6.70;99.90;;;;;;4972717;28;20093;-87
2021/10/17 03:38:41;;;;;;;10.03;5.33;;;7.10;99.90;;;;;;4955811;28;20030;-88
2021/10/17 03:41:07;;;;;;;8.70;4.87;;;6.90;99.90;;;;;;4976655;28;20034;-88
2021/10/17 03:43:36;;;;;;;10.37;5.63;;;7.00;99.90;;;;;;4956443;28;20487;-88
2021/10/17 03:46:02;;;;;;;9.33;4.90;;;7.90;99.90;;;;;;4956255;28;20035;-88
2021/10/17 03:48:27;;;;;;;10.07;5.17;;;7.60;99.90;;;;;;4964210;28;20085;-87
2021/10/17 03:50:53;;;;;;;9.40;4.97;;;7.50;99.90;;;;;;4971754;28;20058;-87
2021/10/17 03:53:19;;;;;;;9.00;4.53;;;7.40;99.90;;;;;;4956340;28;20031;-88
2021/10/17 03:55:44;;;;;;;8.70;4.80;;;8.00;99.90;;;;;;4956296;28;20093;-87
2021/10/17 03:58:10;;;;;;;9.53;5.17;;;7.80;99.90;;;;;;4974736;28;20034;-88
2021/10/17 04:00:36;;;;;;;10.87;5.03;;;6.70;99.90;;;;;;4974793;28;20034;-87
2021/10/17 04:03:01;;;;;;;7.07;4.70;;;6.20;99.90;;;;;;4972771;28;20523;-88
2021/10/17 04:05:27;;;;;;;7.90;4.17;;;6.60;99.90;;;;;;4955647;28;20134;-88
2021/10/17 04:07:53;;;;;;;7.53;4.73;;;5.90;99.90;;;;;;4956241;28;20034;-88
2021/10/17 04:10:18;;;;;;;8.93;4.80;;;6.10;99.90;;;;;;4955047;28;20165;-87
2021/10/17 04:12:44;;;;;;;9.93;5.17;;;7.30;99.90;;;;;;4982609;28;20054;-87
2021/10/17 04:15:10;;;;;;;8.13;4.70;;;8.00;99.90;;;;;;4976482;28;20030;-87
2021/10/17 04:17:35;;;;;;;8.63;4.47;;;6.80;99.90;;;;;;4958800;28;20750;-88
2021/10/17 04:20:02;;;;;;;8.67;4.73;;;6.00;99.90;;;;;;4973669;28;20112;-87
2021/10/17 04:22:28;;;;;;;8.17;4.37;;;6.80;99.90;;;;;;4976310;28;20105;-88
2021/10/17 04:24:54;;;;;;;9.50;4.40;;;6.10;99.90;;;;;;4954350;29;20054;-88
2021/10/17 04:27:19;;;;;;;7.20;4.30;;;6.80;99.90;;;;;;4974172;28;20031;-88
2021/10/17 04:29:45;;;;;;;7.37;4.73;;;7.50;99.90;;;;;;4974969;28;20349;-87
2021/10/17 04:32:10;;;;;;;8.47;4.67;;;6.00;99.90;;;;;;4957327;28;20097;-87
2021/10/17 04:34:37;;;;;;;7.97;4.60;;;8.20;99.90;;;;;;4958408;28;20031;-86
2021/10/17 04:37:03;;;;;;;8.63;5.10;;;9.10;99.90;;;;;;4957606;28;20122;-86
2021/10/17 04:39:29;;;;;;;8.77;4.90;;;6.60;99.90;;;;;;4956480;28;20030;-86
2021/10/17 04:41:55;;;;;;;9.20;4.80;;;6.70;99.90;;;;;;4943875;29;20504;-87
2021/10/17 04:44:21;;;;;;;6.87;4.00;;;8.30;99.90;;;;;;4964516;28;20035;-87
2021/10/17 04:46:48;;;;;;;8.30;4.57;;;6.60;99.90;;;;;;4947336;29;20050;-87
2021/10/17 04:49:13;;;;;;;8.83;4.20;;;6.60;99.90;;;;;;4979249;28;20026;-87
2021/10/17 04:51:39;;;;;;;9.10;4.20;;;6.50;99.90;;;;;;4975645;28;20031;-88
2021/10/17 04:54:05;;;;;;;8.50;5.00;;;8.50;99.90;;;;;;4974482;28;20417;-88
2021/10/17 04:56:30;;;;;;;9.53;4.23;;;7.20;99.90;;;;;;4958585;28;20110;-88
2021/10/17 04:58:56;;;;;;;11.87;5.43;;;6.80;99.90;;;;;;4976533;28;20027;-88
2021/10/17 05:01:22;;;;;;;10.13;4.70;;;7.10;99.90;;;;;;4974920;28;20031;-88
2021/10/17 05:03:48;;;;;;;7.60;4.50;;;8.50;99.90;;;;;;4958254;28;20427;-88
2021/10/17 05:06:13;;;;;;;10.87;5.93;;;6.40;99.90;;;;;;4959362;28;20344;-87
2021/10/17 05:08:39;;;;;;;8.50;4.43;;;8.20;99.90;;;;;;4975946;28;20492;-87
2021/10/17 05:11:05;;;;;;;10.20;5.23;;;8.30;99.90;;;;;;4972551;28;20027;-88
2021/10/17 05:13:34;;;;;;;8.87;5.03;;;6.90;99.90;;;;;;4977118;28;20163;-86
2021/10/17 05:15:59;;;;;;;8.30;4.80;;;7.30;99.90;;;;;;4951041;28;20027;-87
2021/10/17 05:18:25;;;;;;;8.20;4.53;;;6.80;99.90;;;;;;4951435;29;20127;-88
2021/10/17 05:20:50;;;;;;;8.07;4.40;;;7.70;99.90;;;;;;4950513;28;20058;-88
2021/10/17 05:23:16;;;;;;;9.60;4.53;;;6.70;99.90;;;;;;4954160;28;20035;-87
2021/10/17 05:25:43;;;;;;;7.87;4.30;;;6.30;99.90;;;;;;4954292;28;20097;-88
2021/10/17 05:28:08;;;;;;;9.63;4.50;;;5.80;99.90;;;;;;4971827;28;20027;-88
2021/10/17 05:30:35;;;;;;;8.00;4.57;;;5.90;99.90;;;;;;4953100;28;20484;-87
2021/10/17 05:33:02;;;;;;;8.67;4.80;;;6.80;99.90;;;;;;4954041;28;20041;-87
2021/10/17 05:35:28;;;;;;;8.53;4.90;;;6.80;99.90;;;;;;4971902;28;20471;-87
2021/10/17 05:37:54;;;;;;;7.73;4.33;;;7.50;99.90;;;;;;4971667;28;20045;-87
2021/10/17 05:40:20;;;;;;;9.47;5.23;;;7.10;99.90;;;;;;4945996;28;20034;-87
2021/10/17 05:42:45;;;;;;;8.87;5.00;;;6.80;99.90;;;;;;4954102;28;20707;-88
2021/10/17 05:45:11;;;;;;;8.43;4.03;;;7.90;99.90;;;;;;4954418;28;20042;-88
2021/10/17 05:47:37;;;;;;;7.93;4.50;;;6.70;99.90;;;;;;4954477;28;20027;-87
2021/10/17 05:50:04;;;;;;;7.87;4.40;;;6.00;99.90;;;;;;4968997;28;20141;-86
2021/10/17 05:52:30;;;;;;;8.23;4.43;;;6.80;99.90;;;;;;4954012;28;20380;-87
2021/10/17 05:54:56;;;;;;;8.47;4.83;;;6.20;99.90;;;;;;4970556;28;20078;-88
2021/10/17 05:57:21;;;;;;;8.43;4.07;;;6.70;99.90;;;;;;4953216;28;20051;-88
2021/10/17 05:59:47;;;;;;;6.97;4.23;;;7.10;99.90;;;;;;4953778;29;20054;-88
2021/10/17 06:02:14;;;;;;;6.90;3.90;;;6.60;99.90;;;;;;4955695;29;20481;-87
2021/10/17 06:04:39;;;;;;;11.13;5.13;;;7.40;99.90;;;;;;4957487;28;20030;-88
2021/10/17 06:07:05;;;;;;;8.23;4.50;;;6.70;99.90;;;;;;4975071;28;20030;-87
2021/10/17 06:09:35;;;;;;;10.37;5.30;;;6.30;99.90;;;;;;4954610;28;20035;-87
2021/10/17 06:12:02;;;;;;;8.10;4.50;;;7.30;99.90;;;;;;4956379;29;20035;-88
2021/10/17 06:14:27;;;;;;;9.73;5.23;;;6.80;99.90;;;;;;4969544;28;20043;-88
2021/10/17 06:16:53;;;;;;;10.50;5.37;;;6.80;99.90;;;;;;4974021;28;20041;-87
2021/10/17 06:19:19;;;;;;;10.57;5.83;;;6.40;99.90;;;;;;4960505;28;20036;-88
2021/10/17 06:21:44;;;;;;;11.30;5.67;;;6.80;99.90;;;;;;4972161;28;20026;-88
2021/10/17 06:24:10;;;;;;;11.87;5.90;;;6.70;99.90;;;;;;4974880;28;20054;-87
2021/10/17 06:26:36;;;;;;;11.20;5.60;;;7.70;99.90;;;;;;4957067;28;20031;-87
2021/10/17 06:29:01;;;;;;;12.27;5.73;;;6.00;99.90;;;;;;4957474;28;20046;-87
2021/10/17 06:31:27;;;;;;;11.00;5.57;;;6.30;99.90;;;;;;4956030;28;20038;-88
2021/10/17 06:33:52;;;;;;;11.63;5.87;;;6.50;99.90;;;;;;4973122;28;20039;-88
2021/10/17 06:36:18;;;;;;;11.53;6.20;;;7.50;99.90;;;;;;4957283;28;20054;-87
2021/10/17 06:38:43;;;;;;;12.33;6.67;;;6.90;99.90;;;;;;4972805;28;20113;-87
2021/10/17 06:41:09;;;;;;;12.17;6.47;;;6.30;99.90;;;;;;4949213;28;20058;-88
2021/10/17 06:43:35;;;;;;;11.63;5.70;;;6.80;99.90;;;;;;4974152;28;20035;-88
2021/10/17 06:46:00;;;;;;;12.53;6.00;;;6.60;99.90;;;;;;4957248;28;20058;-88
2021/10/17 06:48:26;;;;;;;10.60;5.87;;;6.60;99.90;;;;;;4972286;28;20543;-87
2021/10/17 06:50:52;;;;;;;10.90;5.67;;;6.40;99.90;;;;;;4956122;28;20035;-88
2021/10/17 06:53:18;;;;;;;11.13;6.10;;;6.70;99.90;;;;;;4956959;28;20117;-86
2021/10/17 06:55:44;;;;;;;10.03;5.57;;;7.00;99.90;;;;;;4974039;28;20038;-88
2021/10/17 06:58:09;;;;;;;11.43;6.50;;;7.10;99.90;;;;;;4979521;28;20101;-88
2021/10/17 07:00:35;;;;;;;13.60;6.53;;;7.50;99.90;;;;;;4980000;28;20118;-88
2021/10/17 07:03:00;;;;;;;11.73;6.00;;;8.20;99.90;;;;;;4973815;28;20507;-89
2021/10/17 07:05:26;;;;;;;9.83;5.87;;;7.30;99.90;;;;;;4956486;28;20050;-87
2021/10/17 07:07:52;;;;;;;9.20;5.03;;;7.40;99.90;;;;;;4958078;28;20089;-88
2021/10/17 07:10:17;;;;;;;8.73;5.27;;;7.50;99.90;;;;;;4985871;28;20022;-87
2021/10/17 07:12:43;;;;;;;9.30;5.53;;;7.80;99.90;;;;;;4958434;28;20038;-87
2021/10/17 07:15:08;;;;;;;11.13;6.10;;;7.80;99.90;;;;;;4985296;28;20483;-87
2021/10/17 07:17:35;;;;;;;9.80;5.77;;;7.70;99.90;;;;;;4988502;28;20145;-87
2021/10/17 07:20:01;;;;;;;10.53;5.97;;;7.20;99.90;;;;;;4987206;28;20026;-88
2021/10/17 07:22:27;;;;;;;10.17;5.20;;;7.90;99.90;;;;;;4987008;28;20517;-87
2021/10/17 07:24:52;;;;;;;10.27;5.53;;;7.80;99.90;;;;;;4985970;28;20022;-87
2021/10/17 07:27:18;;;;;;;12.17;5.50;;;7.40;99.90;;;;;;4988562;28;20074;-88
2021/10/17 07:29:45;;;;;;;10.67;5.20;;;7.80;99.90;;;;;;4954407;28;20019;-88
2021/10/17 07:32:10;;;;;;;9.03;5.53;;;7.90;99.90;;;;;;4957502;28;20163;-86
2021/10/17 07:34:36;;;;;;;9.37;5.40;;;7.80;99.90;;;;;;4954661;28;20120;-88
2021/10/17 07:37:02;;;;;;;8.53;4.93;;;8.80;99.90;;;;;;4955309;28;20034;-87
2021/10/17 07:39:28;;;;;;;10.60;5.67;;;7.90;99.90;;;;;;4971040;28;20154;-87
2021/10/17 07:41:54;;;;;;;12.10;6.53;;;8.10;99.90;;;;;;4972734;28;20030;-88
2021/10/17 07:44:20;;;;;;;11.33;6.30;;;8.10;99.90;;;;;;4956680;28;20403;-88
2021/10/17 07:46:46;;;;;;;12.48;6.18;;;7.70;99.90;;;;;;4972834;28;20032;-87
2021/10/17 07:49:11;;;;;;;11.13;5.53;;;8.20;99.90;;;;;;4948361;28;20165;-87
2021/10/17 07:51:37;;;;;;;10.80;5.53;;;8.10;99.90;;;;;;4967638;28;20042;-88
2021/10/17 07:54:03;;;;;;;9.90;5.88;;;8.50;99.90;;;;;;4941266;28;20034;-88
2021/10/17 07:56:29;;;;;;;12.80;6.18;;;8.60;99.90;;;;;;4961473;28;20026;-87
2021/10/17 07:59:15;;;;;;;12.32;6.28;;;8.80;99.90;;;;;;4955569;28;20031;-89
2021/10/17 08:01:40;;;;;;;11.02;5.93;;;8.80;99.90;;;;;;4971773;28;20023;-89
2021/10/17 08:04:10;;;;;;;10.07;6.10;;;9.70;99.90;;;;;;4972428;28;20385;-89
2021/10/17 08:06:36;;;;;;;10.25;5.68;;;9.10;99.90;;;;;;4972050;28;20687;-88
2021/10/17 08:09:05;;;;;;;13.70;7.00;;;9.20;99.90;;;;;;4954228;28;20451;-89
2021/10/17 08:11:30;;;;;;;11.27;6.53;;;9.30;99.90;;;;;;4950757;28;20128;-88
2021/10/17 08:13:56;;;;;;;10.70;6.45;;;9.70;99.90;;;;;;4968554;28;20031;-88
2021/10/17 08:16:21;;;;;;;12.32;6.13;;;10.40;99.90;;;;;;4970848;28;20026;-86
2021/10/17 08:18:47;;;;;;;10.40;5.95;;;8.80;99.90;;;;;;4969806;28;20050;-85
2021/10/17 08:21:14;;;;;;;12.63;6.45;;;9.30;99.90;;;;;;4952428;28;20510;-85
2021/10/17 08:23:39;;;;;;;12.30;6.90;;;9.30;99.90;;;;;;4970746;28;20019;-86
2021/10/17 08:26:05;;;;;;;9.40;5.40;;;9.10;99.90;;;;;;4955345;28;20538;-85
2021/10/17 08:28:30;;;;;;;10.15;6.07;;;9.30;99.90;;;;;;4969489;28;20113;-85
2021/10/17 08:30:58;;;;;;;10.85;6.57;;;9.30;99.90;;;;;;4955147;28;20062;-86
2021/10/17 08:33:26;;;;;;;13.10;7.13;;;9.00;99.90;;;;;;4957043;28;20058;-86
2021/10/17 08:35:52;;;;;;;10.93;6.45;;;9.40;99.90;;;;;;4972084;28;20026;-86
2021/10/17 08:38:17;;;;;;;14.15;7.07;;;9.50;99.90;;;;;;4971672;28;20097;-85
2021/10/17 08:40:48;;;;;;;12.80;6.78;;;9.50;99.90;;;;;;4970388;28;20094;-87
2021/10/17 08:43:13;;;;;;;11.23;6.97;;;9.60;99.90;;;;;;4968567;28;20089;-88
2021/10/17 08:45:39;;;;;;;12.07;6.60;;;9.60;99.90;;;;;;4953501;28;20403;-87
2021/10/17 08:48:05;;;;;;;12.73;7.05;;;9.60;99.90;;;;;;4949700;28;20034;-88
2021/10/17 08:50:32;;;;;;;12.45;6.90;;;9.60;99.90;;;;;;4954040;28;20022;-88
2021/10/17 08:52:57;;;;;;;12.23;7.38;;;9.60;99.90;;;;;;4972642;28;20058;-88
2021/10/17 08:55:23;;;;;;;17.83;8.52;;;9.70;99.90;;;;;;4975941;28;20499;-89
2021/10/17 08:57:52;;;;;;;14.20;7.80;;;9.80;99.90;;;;;;4955272;28;20041;-87
2021/10/17 09:00:33;;;;;;;14.07;7.20;;;9.40;99.90;;;;;;4957576;28;20105;-87
2021/10/17 09:02:59;;;;;;;13.20;6.85;;;9.60;99.90;;;;;;4973073;28;20050;-88
2021/10/17 09:05:43;;;;;;;11.15;6.28;;;9.90;99.90;;;;;;4987294;28;20031;-87
2021/10/17 09:08:14;;;;;;;14.10;7.18;;;10.00;99.90;;;;;;4971832;28;20033;-87
2021/10/17 09:10:40;;;;;;;12.02;6.65;;;10.00;99.90;;;;;;4955125;28;20027;-87
2021/10/17 09:13:14;;;;;;;13.13;7.05;;;10.10;99.90;;;;;;4969943;28;20596;-88
2021/10/17 09:15:41;;;;;;;10.73;6.13;;;10.90;99.90;;;;;;4953092;28;20030;-87
2021/10/17 09:18:19;;;;;;;15.05;8.05;;;10.80;99.90;;;;;;4952641;28;20479;-88
2021/10/17 09:20:48;;;;;;;16.00;7.28;;;10.00;99.90;;;;;;4951700;28;20039;-88
2021/10/17 09:23:17;;;;;;;13.95;7.38;;;9.90;99.90;;;;;;4962113;28;20515;-88
2021/10/17 09:26:05;;;;;;;11.05;6.47;;;10.00;99.90;;;;;;4953639;28;20045;-90
2021/10/17 09:28:31;;;;;;;12.93;7.00;;;10.00;99.90;;;;;;4972114;28;20030;-90
2021/10/17 09:31:10;;;;;;;11.82;7.32;;;10.70;99.90;;;;;;4956257;28;20124;-90
2021/10/17 09:33:44;;;;;;;12.85;7.03;;;10.30;99.90;;;;;;4959342;28;20559;-92
2021/10/17 09:36:19;;;;;;;10.82;6.07;;;9.60;99.90;;;;;;4972372;28;20034;-89
2021/10/17 09:38:46;;;;;;;11.60;7.22;;;11.40;99.90;;;;;;4977287;28;20098;-91
2021/10/17 09:41:28;;;;;;;12.75;6.43;;;11.60;99.90;;;;;;4967168;28;20027;-90
2021/10/17 09:43:56;;;;;;;11.98;6.72;;;11.10;99.90;;;;;;4972126;28;20038;-89
2021/10/17 09:46:24;;;;;;;12.70;7.05;;;12.00;99.90;;;;;;4959201;28;20035;-89
2021/10/17 09:48:51;;;;;;;11.40;6.22;;;10.60;99.90;;;;;;4974922;28;20023;-90
2021/10/17 09:51:26;;;;;;;11.35;7.30;;;10.60;99.90;;;;;;4958886;28;20540;-90
2021/10/17 09:54:00;;;;;;;10.45;5.95;;;10.90;99.90;;;;;;4970054;28;20101;-89
2021/10/17 09:56:39;;;;;;;11.88;6.07;;;10.80;99.90;;;;;;4950027;28;20019;-89
2021/10/17 09:59:13;;;;;;;11.27;5.82;;;10.80;99.90;;;;;;4976679;28;20255;-86
2021/10/17 10:01:42;;;;;;;12.43;6.38;;;10.80;99.90;;;;;;4975262;28;20050;-86
2021/10/17 10:04:11;;;;;;;11.25;6.60;;;10.80;99.90;;;;;;4973150;28;20034;-86
2021/10/17 10:06:38;;;;;;;10.52;5.93;;;10.90;99.90;;;;;;4972559;28;20019;-86
2021/10/17 10:09:09;;;;;;;9.60;5.88;;;11.00;99.90;;;;;;4958458;28;20022;-86
2021/10/17 10:11:39;;;;;;;10.57;5.97;;;11.10;99.90;;;;;;4972164;28;20030;-86
2021/10/17 10:14:07;;;;;;;9.43;5.53;;;11.10;99.90;;;;;;4961653;28;20515;-85
2021/10/17 10:16:36;;;;;;;9.00;5.80;;;11.10;99.90;;;;;;4974512;28;20031;-85
2021/10/17 10:19:06;;;;;;;9.68;5.53;;;11.20;99.90;;;;;;4975213;28;20058;-84
2021/10/17 10:21:32;;;;;;;9.13;5.75;;;11.30;99.90;;;;;;4957852;28;20435;-85
2021/10/17 10:24:02;;;;;;;9.13;5.25;;;11.40;99.90;;;;;;4955489;28;20051;-85
2021/10/17 10:26:30;;;;;;;10.27;5.65;;;11.50;99.90;;;;;;4958212;28;20074;-85
2021/10/17 10:28:57;;;;;;;7.85;4.93;;;11.50;99.90;;;;;;4963965;28;20078;-86
2021/10/17 10:31:54;;;;;;;9.02;5.10;;;11.50;99.90;;;;;;4980606;28;20030;-85
2021/10/17 10:34:23;;;;;;;8.10;4.70;;;11.50;99.90;;;;;;4982940;28;20030;-85
2021/10/17 10:36:50;;;;;;;7.57;5.05;;;11.80;99.90;;;;;;4983362;28;20099;-86
2021/10/17 10:39:23;;;;;;;8.40;4.93;;;12.80;99.90;;;;;;4960174;28;20034;-85
2021/10/17 10:41:57;;;;;;;9.93;5.10;;;12.30;99.90;;;;;;4980080;28;20030;-86
2021/10/17 10:44:24;;;;;;;8.23;4.85;;;11.70;99.90;;;;;;4963280;28;20038;-85
2021/10/17 10:46:54;;;;;;;10.00;5.50;;;11.60;99.90;;;;;;4967979;28;20058;-86
2021/10/17 10:49:49;;;;;;;9.40;5.40;;;12.50;99.90;;;;;;4970476;28;20089;-86
2021/10/17 10:52:35;;;;;;;10.27;5.68;;;11.20;99.90;;;;;;5000355;28;20030;-86
2021/10/17 10:55:07;;;;;;;9.95;5.50;;;12.70;99.90;;;;;;4988497;28;20072;-85
2021/10/17 10:57:40;;;;;;;9.25;5.18;;;11.50;99.90;;;;;;4969598;28;20571;-86
2021/10/17 11:00:09;;;;;;;10.95;5.80;;;11.40;99.90;;;;;;4970004;28;20107;-87
2021/10/17 11:02:35;;;;;;;9.30;5.22;;;11.50;99.90;;;;;;4966671;29;20043;-84
2021/10/17 11:05:19;;;;;;;11.18;5.93;;;12.50;99.90;;;;;;4966877;29;20085;-85
2021/10/17 11:07:48;;;;;;;9.00;5.10;;;12.40;99.90;;;;;;4976001;28;20416;-86
2021/10/17 11:10:25;;;;;;;10.40;5.38;;;12.80;99.90;;;;;;4984097;28;20399;-86
2021/10/17 11:13:01;;;;;;;8.77;5.03;;;13.30;99.90;;;;;;4985025;28;20091;-86
2021/10/17 11:15:30;;;;;;;10.48;5.00;;;12.50;99.90;;;;;;4993383;28;20038;-85
2021/10/17 11:17:55;;;;;;;8.98;5.35;;;13.10;99.90;;;;;;4995592;28;20041;-84
2021/10/17 11:20:24;;;;;;;8.52;4.90;;;11.70;99.90;;;;;;4989476;28;20086;-87
2021/10/17 11:22:51;;;;;;;11.18;5.45;;;11.90;99.90;;;;;;4980961;28;20098;-85
2021/10/17 11:25:19;;;;;;;11.60;5.53;;;12.50;99.90;;;;;;4996626;28;20029;-85
2021/10/17 11:27:48;;;;;;;11.88;6.45;;;11.50;99.90;;;;;;4992178;28;20026;-85
2021/10/17 11:30:22;;;;;;;11.63;6.30;;;12.40;99.90;;;;;;4991999;28;20034;-85
2021/10/17 11:32:48;;;;;;;11.15;6.18;;;12.50;99.90;;;;;;4972149;28;20037;-85
2021/10/17 11:35:24;;;;;;;10.88;6.28;;;11.90;99.90;;;;;;4999050;28;20022;-86
2021/10/17 11:37:51;;;;;;;10.00;5.93;;;11.50;99.90;;;;;;4973660;28;20053;-85
2021/10/17 11:40:17;;;;;;;10.70;5.85;;;11.10;99.90;;;;;;4988300;28;20036;-85
2021/10/17 11:42:57;;;;;;;13.50;6.57;;;10.70;99.90;;;;;;4986040;28;20068;-85
2021/10/17 11:45:33;;;;;;;10.68;5.70;;;11.10;99.90;;;;;;4958363;28;20034;-85
2021/10/17 11:48:01;;;;;;;12.73;6.43;;;12.10;99.90;;;;;;4962744;28;20042;-85
2021/10/17 11:50:31;;;;;;;11.38;6.35;;;11.70;99.90;;;;;;4977016;28;20034;-85
2021/10/17 11:53:01;;;;;;;11.13;6.40;;;11.60;99.90;;;;;;4982197;28;20065;-85
2021/10/17 11:55:40;;;;;;;12.85;6.53;;;12.80;99.90;;;;;;4988150;28;20035;-85
2021/10/17 11:58:26;;;;;;;12.30;6.30;;;11.30;99.90;;;;;;4982877;28;20149;-84
2021/10/17 12:01:12;;;;;;;10.65;6.05;;;12.20;99.90;;;;;;4990951;28;20057;-85
2021/10/17 12:03:40;;;;;;;10.43;5.80;;;11.50;99.90;;;;;;4982628;28;20037;-86
2021/10/17 12:06:13;;;;;;;10.88;5.43;;;12.80;99.90;;;;;;4986613;28;20049;-85
2021/10/17 12:08:38;;;;;;;11.20;5.72;;;12.20;99.90;;;;;;4979349;28;20041;-84
2021/10/17 12:11:09;;;;;;;11.50;5.85;;;11.80;99.90;;;;;;4984394;28;20030;-85
2021/10/17 12:13:43;;;;;;;13.07;6.30;;;11.50;99.90;;;;;;4952248;28;20129;-85
2021/10/17 12:16:17;;;;;;;9.98;5.28;;;11.90;99.90;;;;;;4988135;28;20105;-85
2021/10/17 12:18:45;;;;;;;13.13;6.07;;;11.30;99.90;;;;;;4958861;28;20126;-83
2021/10/17 12:21:12;;;;;;;11.40;4.95;;;11.10;99.90;;;;;;4985060;28;20030;-84
2021/10/17 12:23:38;;;;;;;10.57;5.35;;;11.50;99.90;;;;;;4986102;28;20472;-85
2021/10/17 12:26:05;;;;;;;8.65;5.03;;;11.40;99.90;;;;;;4986659;28;20172;-85
2021/10/17 12:28:31;;;;;;;10.07;6.03;;;11.50;99.90;;;;;;4980396;28;20035;-85
2021/10/17 12:31:01;;;;;;;10.48;5.78;;;12.00;99.90;;;;;;4979645;28;20460;-85
2021/10/17 12:33:37;;;;;;;10.43;5.30;;;11.00;99.90;;;;;;4982290;28;20208;-85
2021/10/17 12:36:04;;;;;;;8.45;4.95;;;11.90;99.90;;;;;;4986180;28;20034;-85
2021/10/17 12:38:36;;;;;;;9.10;5.47;;;11.60;99.90;;;;;;4982680;28;20019;-85
2021/10/17 12:41:07;;;;;;;12.80;5.68;;;11.70;99.90;;;;;;4988156;28;20034;-86
2021/10/17 12:43:34;;;;;;;10.73;5.68;;;11.70;99.90;;;;;;4959373;28;20038;-85
2021/10/17 12:46:17;;;;;;;8.85;5.45;;;12.40;99.90;;;;;;4987678;28;20050;-84
2021/10/17 12:48:45;;;;;;;11.23;5.38;;;11.70;99.90;;;;;;4972659;28;20038;-85
2021/10/17 12:51:32;;;;;;;10.23;5.20;;;11.90;99.90;;;;;;4982773;28;20058;-85